26VA weather

Fairfax County Police Heliport
Fairfax, Virginia, United States

Public forecast

Using degrees Fahrenheit for public forecast. Weather courtesy of forecast.io.

Closest aviation weather report (METAR) to Fairfax County Police Heliport

Closest report is Washington Dulles International Airport, 6.7 nm (12.4 km) NW. Retrieved 2020/06/01 07:52 UTC (34 minutes ago):

KIAD 010752Z 33005KT 10SM SCT250 12/03 A3026 RMK AO2 SLP245 T01170033

Closest aviation forecast (TAF) to Fairfax County Police Heliport

Closest forecast is Washington Dulles International Airport, 6.7 nm (12.4 km) NW. Retrieved 2020/06/01 06:42 UTC (2 hours ago):

TAF KIAD 010539Z 0106/0212 32005KT P6SM FEW200 FEW250 FM020000 25004KT P6SM FEW150 FEW250 FM020900 VRB03KT P6SM SCT150 BKN200